Time;durP1;ratioP1;P1;durP2;ratioP2;P2;SDS_P1;SDS_P2;PMS_P1;PMS_P2;Temp;Humidity;BMP_temperature;BMP_pressure;BME280_temperature;BME280_humidity;BME280_pressure;Samples;Min_cycle;Max_cycle;Signal;HPM_P1;HPM_P2
2022/11/06 00:02:14;;;;;;;8.40;5.07;;;;;;;19.56;64.40;100738.94;5092184;28;20205;-63
2022/11/06 00:04:40;;;;;;;8.47;5.13;;;;;;;19.53;64.52;100738.88;5056992;28;20209;-63
2022/11/06 00:07:06;;;;;;;8.07;4.63;;;;;;;19.50;64.55;100743.31;5092135;28;20166;-63
2022/11/06 00:09:32;;;;;;;7.87;5.07;;;;;;;19.56;64.37;100738.13;5073878;28;20818;-64
2022/11/06 00:11:58;;;;;;;6.20;4.60;;;;;;;19.53;64.51;100733.16;5073849;28;20416;-63
2022/11/06 00:14:23;;;;;;;8.03;5.40;;;;;;;19.54;64.45;100738.50;5073044;28;20617;-63
2022/11/06 00:16:48;;;;;;;6.67;4.77;;;;;;;19.51;64.39;100747.84;5091165;28;20162;-64
2022/11/06 00:19:14;;;;;;;6.07;4.23;;;;;;;19.53;64.67;100750.34;5090887;28;20189;-63
2022/11/06 00:21:40;;;;;;;6.30;4.40;;;;;;;19.53;64.50;100747.47;5055882;28;20210;-63
2022/11/06 00:24:06;;;;;;;9.00;4.80;;;;;;;19.52;64.34;100746.63;5072596;28;20177;-64
2022/11/06 00:26:31;;;;;;;7.00;4.73;;;;;;;19.51;64.60;100753.56;5072398;28;20171;-64
2022/11/06 00:28:57;;;;;;;7.00;4.77;;;;;;;19.53;64.44;100747.47;5056169;28;20415;-63
2022/11/06 00:31:27;;;;;;;8.40;5.10;;;;;;;19.51;64.18;100747.84;5073479;28;20626;-65
2022/11/06 00:33:53;;;;;;;7.13;4.60;;;;;;;19.47;64.41;100744.06;5072280;28;20181;-64
2022/11/06 00:36:20;;;;;;;7.47;5.00;;;;;;;19.47;64.65;100744.06;5036479;28;20433;-64
2022/11/06 00:38:46;;;;;;;6.90;4.83;;;;;;;19.48;64.88;100745.75;5070047;28;20426;-64
2022/11/06 00:41:13;;;;;;;6.07;4.23;;;;;;;19.49;64.48;100750.25;5070447;28;20556;-63
2022/11/06 00:43:38;;;;;;;8.73;4.40;;;;;;;19.47;64.45;100757.56;5073445;28;20162;-64
2022/11/06 00:46:08;;;;;;;6.07;4.00;;;;;;;19.54;64.29;100755.69;5073051;28;20770;-63
2022/11/06 00:48:33;;;;;;;7.00;3.73;;;;;;;19.47;64.60;100758.38;5069302;28;20231;-63
2022/11/06 00:51:07;;;;;;;7.80;5.00;;;;;;;19.49;64.34;100761.72;5036573;28;20994;-64
2022/11/06 00:53:33;;;;;;;7.00;5.07;;;;;;;19.51;64.43;100759.28;5036726;28;20181;-64
2022/11/06 00:56:09;;;;;;;6.27;4.40;;;;;;;19.48;64.53;100762.09;5052917;28;20390;-63
2022/11/06 00:58:35;;;;;;;9.63;4.40;;;;;;;19.49;64.35;100764.59;5036416;28;20192;-65
2022/11/06 01:01:27;;;;;;;7.87;5.30;;;;;;;19.52;64.34;100760.94;5051862;28;20509;-64
2022/11/06 01:03:55;;;;;;;5.60;3.97;;;;;;;19.48;64.53;100765.78;5054307;28;20218;-64
2022/11/06 01:06:21;;;;;;;7.40;4.40;;;;;;;19.47;64.46;100746.94;5048555;28;20422;-65
2022/11/06 01:08:47;;;;;;;7.90;4.80;;;;;;;19.48;64.34;100756.38;5069916;28;20413;-65
2022/11/06 01:11:22;;;;;;;5.53;3.83;;;;;;;19.48;64.35;100739.19;5035218;28;20555;-64
2022/11/06 01:13:52;;;;;;;6.10;4.20;;;;;;;19.44;64.46;100741.97;5035802;28;20274;-64
2022/11/06 01:16:18;;;;;;;6.80;4.70;;;;;;;19.43;64.48;100746.06;5017482;28;20457;-64
2022/11/06 01:18:43;;;;;;;5.43;4.07;;;;;;;19.46;64.43;100744.47;5035535;28;20823;-64
2022/11/06 01:21:11;;;;;;;5.03;3.73;;;;;;;19.46;64.37;100744.47;5051649;28;20282;-64
2022/11/06 01:23:36;;;;;;;6.27;4.17;;;;;;;19.45;64.48;100748.50;5036280;28;20183;-63
2022/11/06 01:26:03;;;;;;;6.30;3.73;;;;;;;19.47;64.32;100751.84;5036091;28;20429;-64
2022/11/06 01:28:29;;;;;;;7.23;4.00;;;;;;;19.45;64.35;100749.34;5052872;28;20649;-64
2022/11/06 01:30:54;;;;;;;6.17;4.00;;;;;;;19.46;64.51;100744.47;5070775;28;20417;-64
2022/11/06 01:33:20;;;;;;;5.30;4.00;;;;;;;19.46;64.30;100736.69;5052789;28;20171;-64
2022/11/06 01:35:49;;;;;;;6.30;4.20;;;;;;;19.43;64.49;100736.63;5070703;28;20163;-63
2022/11/06 01:38:15;;;;;;;5.30;3.70;;;;;;;19.42;64.49;100732.09;5036252;28;20515;-64
2022/11/06 01:40:42;;;;;;;6.67;4.10;;;;;;;19.44;64.60;100736.25;5039947;28;20508;-64
2022/11/06 01:44:03;;;;;;;6.50;4.20;;;;;;;19.43;64.51;100723.16;5040065;28;20230;-64
2022/11/06 01:46:30;;;;;;;4.27;3.43;;;;;;;19.41;64.49;100719.81;4973186;28;20977;-64
2022/11/06 01:49:15;;;;;;;4.50;3.63;;;;;;;19.49;64.30;100710.19;5048089;28;20470;-64
2022/11/06 01:51:52;;;;;;;5.60;3.93;;;;;;;19.45;64.26;100705.56;5076476;28;20432;-64
2022/11/06 01:54:19;;;;;;;7.00;4.80;;;;;;;19.44;64.34;100698.19;5077346;28;20412;-64
2022/11/06 01:56:45;;;;;;;5.20;3.80;;;;;;;19.42;64.82;100692.81;5076309;28;20431;-64
2022/11/06 01:59:13;;;;;;;6.40;4.10;;;;;;;19.41;64.67;100684.63;5059708;28;20404;-64
2022/11/06 02:01:38;;;;;;;5.87;3.80;;;;;;;19.43;64.38;100683.06;5055666;28;20488;-64
2022/11/06 02:04:09;;;;;;;5.53;4.07;;;;;;;19.40;64.60;100685.81;5073216;28;20507;-63
2022/11/06 02:06:35;;;;;;;6.50;4.50;;;;;;;19.39;64.52;100673.56;5055629;28;20598;-64
2022/11/06 02:09:00;;;;;;;5.97;3.70;;;;;;;19.38;64.63;100669.03;5057347;28;20420;-64
2022/11/06 02:11:26;;;;;;;7.53;3.83;;;;;;;19.41;64.52;100659.69;5071519;28;20186;-64
2022/11/06 02:14:08;;;;;;;5.60;4.00;;;;;;;19.40;64.35;100655.16;5038651;28;20229;-64
2022/11/06 02:16:42;;;;;;;5.90;3.70;;;;;;;19.38;64.67;100663.31;5073056;28;20163;-64
2022/11/06 02:19:29;;;;;;;5.73;3.70;;;;;;;19.35;64.67;100661.19;5063497;28;20904;-64
2022/11/06 02:22:08;;;;;;;5.60;3.77;;;;;;;19.40;64.51;100654.31;5075434;28;20509;-64
2022/11/06 02:24:55;;;;;;;5.33;3.80;;;;;;;19.40;64.58;100643.72;5059111;28;20432;-63
2022/11/06 02:27:24;;;;;;;5.60;3.90;;;;;;;19.41;64.84;100653.94;5090724;28;20764;-64
2022/11/06 02:30:08;;;;;;;5.00;3.73;;;;;;;19.38;64.34;100657.59;5075992;28;20409;-63
2022/11/06 02:32:44;;;;;;;5.57;3.93;;;;;;;19.38;64.47;100651.88;5060229;28;20489;-64
2022/11/06 02:35:34;;;;;;;5.53;3.70;;;;;;;19.38;64.42;100645.28;5062560;28;20399;-63
2022/11/06 02:38:24;;;;;;;5.93;4.67;;;;;;;19.41;64.40;100633.09;5059767;28;20421;-64
2022/11/06 02:40:55;;;;;;;8.67;4.00;;;;;;;19.38;64.42;100646.13;5081033;28;20746;-64
2022/11/06 02:43:22;;;;;;;4.80;3.40;;;;;;;19.35;64.40;100643.19;5059168;28;20456;-64
2022/11/06 02:45:52;;;;;;;5.50;3.70;;;;;;;19.35;64.25;100641.16;5059075;28;20976;-64
2022/11/06 02:48:19;;;;;;;6.77;3.53;;;;;;;19.34;64.46;100632.94;5058664;28;20417;-64
2022/11/06 02:50:45;;;;;;;6.40;3.70;;;;;;;19.37;64.32;100627.28;5074797;28;20776;-64
2022/11/06 02:53:11;;;;;;;5.37;3.43;;;;;;;19.35;64.33;100629.69;5058778;28;20807;-64
2022/11/06 02:55:39;;;;;;;5.67;3.57;;;;;;;19.37;64.42;100637.91;5058879;28;20542;-64
2022/11/06 02:58:18;;;;;;;5.93;3.43;;;;;;;19.35;64.37;100623.97;5075325;28;20167;-64
2022/11/06 03:00:45;;;;;;;5.07;3.67;;;;;;;19.33;64.40;100619.84;5093284;28;20515;-64
2022/11/06 03:03:20;;;;;;;5.50;4.00;;;;;;;19.36;64.18;100611.31;5075085;28;20473;-64
2022/11/06 03:05:56;;;;;;;5.23;3.23;;;;;;;19.33;64.35;100617.81;5075306;28;20420;-63
2022/11/06 03:08:24;;;;;;;4.87;3.83;;;;;;;19.34;64.38;100610.88;5070872;28;20424;-64
2022/11/06 03:11:11;;;;;;;4.13;3.10;;;;;;;19.34;64.08;100610.88;5075660;28;20402;-64
2022/11/06 03:13:49;;;;;;;4.87;3.20;;;;;;;19.37;64.05;100612.16;5077872;28;20409;-64
2022/11/06 03:16:27;;;;;;;4.90;3.90;;;;;;;19.34;64.25;100605.16;5079556;28;20399;-64
2022/11/06 03:19:11;;;;;;;4.63;3.27;;;;;;;19.32;64.19;100610.41;5073598;28;20420;-63
2022/11/06 03:22:01;;;;;;;5.00;3.93;;;;;;;19.32;64.31;100606.75;5092580;28;21030;-63
2022/11/06 03:24:41;;;;;;;6.23;3.73;;;;;;;19.30;64.38;100597.69;5092703;28;20432;-63
2022/11/06 03:27:09;;;;;;;5.30;3.60;;;;;;;19.35;64.22;100592.47;5076425;28;20503;-64
2022/11/06 03:29:57;;;;;;;6.80;4.10;;;;;;;19.34;64.13;100587.97;5041683;28;20896;-63
2022/11/06 03:32:28;;;;;;;3.90;3.00;;;;;;;19.35;64.02;100577.31;5088476;28;20448;-63
2022/11/06 03:35:10;;;;;;;4.57;3.20;;;;;;;19.28;64.59;100571.47;5074776;28;20408;-64
2022/11/06 03:37:43;;;;;;;4.83;3.50;;;;;;;19.29;64.40;100573.97;5090358;28;20450;-64
2022/11/06 03:40:12;;;;;;;4.40;3.10;;;;;;;19.30;64.13;100572.75;5070894;28;20398;-64
2022/11/06 03:42:38;;;;;;;6.50;3.70;;;;;;;19.33;64.14;100568.31;5054493;28;20449;-64
2022/11/06 03:45:06;;;;;;;5.13;3.30;;;;;;;19.31;64.18;100574.41;5037848;28;20483;-64
2022/11/06 03:47:53;;;;;;;5.53;3.07;;;;;;;19.32;64.11;100561.75;5053502;28;20174;-64
2022/11/06 03:50:31;;;;;;;4.00;2.93;;;;;;;19.32;64.22;100555.22;5087791;28;20966;-64
2022/11/06 03:53:00;;;;;;;4.93;3.53;;;;;;;19.33;64.00;100554.84;5056737;28;20451;-65
2022/11/06 03:55:55;;;;;;;4.77;3.23;;;;;;;19.30;64.22;100552.72;5057116;28;20960;-64
2022/11/06 03:58:23;;;;;;;4.70;3.40;;;;;;;19.28;64.22;100557.16;5075981;28;20404;-64
2022/11/06 04:00:48;;;;;;;5.20;3.00;;;;;;;19.26;64.31;100546.09;5073766;28;20431;-63
2022/11/06 04:03:24;;;;;;;5.30;3.47;;;;;;;19.33;64.14;100562.59;5057170;28;20425;-64
2022/11/06 04:05:52;;;;;;;6.63;3.93;;;;;;;19.31;63.57;100560.09;5092174;28;20174;-64
2022/11/06 04:13:56;;;;;;;5.03;3.10;;;;;;;19.26;64.37;100554.69;5061262;28;20412;-64
2022/11/06 04:16:23;;;;;;;5.13;3.47;;;;;;;19.27;63.98;100572.69;5074221;28;20515;-64
2022/11/06 04:18:48;;;;;;;4.33;2.97;;;;;;;19.27;64.11;100576.38;5054046;28;20438;-64
2022/11/06 04:21:28;;;;;;;4.83;3.37;;;;;;;19.28;64.11;100583.78;5091169;28;20661;-63
2022/11/06 04:27:34;;;;;;;5.30;3.00;;;;;;;19.26;64.26;100589.03;5076241;28;20461;-65
2022/11/06 04:30:09;;;;;;;4.20;3.17;;;;;;;19.27;64.29;100598.47;5073571;28;20412;-64
2022/11/06 04:32:53;;;;;;;2.97;2.47;;;;;;;19.29;64.22;100607.47;5073456;28;20389;-63
2022/11/06 04:35:55;;;;;;;3.40;2.70;;;;;;;19.28;63.96;100603.81;5091544;28;20388;-63
2022/11/06 04:38:36;;;;;;;4.67;2.87;;;;;;;19.28;64.08;100609.53;5073042;28;20808;-63
2022/11/06 04:41:25;;;;;;;4.87;3.17;;;;;;;19.27;63.99;100610.72;5069657;28;20462;-64
2022/11/06 04:43:56;;;;;;;3.40;2.80;;;;;;;19.27;64.00;100622.16;5078238;28;20982;-64
2022/11/06 04:46:33;;;;;;;5.63;3.70;;;;;;;19.26;64.10;100614.78;5093026;28;20462;-64
2022/11/06 04:48:58;;;;;;;3.93;3.03;;;;;;;19.28;63.99;100612.41;5086053;28;20472;-64
2022/11/06 04:51:27;;;;;;;4.30;3.10;;;;;;;19.30;63.83;100603.41;5072637;28;20458;-64
2022/11/06 04:53:53;;;;;;;3.70;3.03;;;;;;;19.25;64.39;100598.81;5072642;28;20629;-64
2022/11/06 04:56:25;;;;;;;3.53;2.70;;;;;;;19.21;64.08;100592.16;5072660;28;20407;-64
2022/11/06 04:58:50;;;;;;;5.07;3.63;;;;;;;19.25;64.29;100589.41;5072742;28;20625;-64
2022/11/06 05:01:16;;;;;;;3.70;2.57;;;;;;;19.24;64.08;100599.19;5072958;28;20456;-64
2022/11/06 05:03:41;;;;;;;3.63;2.60;;;;;;;19.20;64.21;100598.25;5072670;28;20205;-64
2022/11/06 05:06:07;;;;;;;4.40;3.00;;;;;;;19.26;64.03;100591.88;5091252;28;20186;-63
2022/11/06 05:08:32;;;;;;;3.33;2.53;;;;;;;19.25;63.89;100603.72;5056397;28;20174;-64
2022/11/06 05:10:58;;;;;;;4.30;2.93;;;;;;;19.23;64.07;100606.97;5088362;28;20167;-64
2022/11/06 05:13:23;;;;;;;4.80;3.23;;;;;;;19.26;63.87;100597.63;5072999;28;20529;-64
2022/11/06 05:15:55;;;;;;;4.37;2.70;;;;;;;19.25;64.02;100601.69;5057769;28;20657;-64
2022/11/06 05:18:20;;;;;;;4.30;2.83;;;;;;;19.25;64.13;100593.09;5072611;28;20170;-65
2022/11/06 05:20:45;;;;;;;4.20;2.90;;;;;;;19.29;63.64;100596.88;5070762;28;20774;-63
2022/11/06 05:23:11;;;;;;;4.97;3.23;;;;;;;19.21;64.07;100580.72;5073086;28;20668;-64
2022/11/06 05:25:37;;;;;;;4.87;3.10;;;;;;;19.23;63.97;100572.63;5054505;28;20173;-63
2022/11/06 05:28:06;;;;;;;3.30;2.53;;;;;;;19.20;63.86;100556.16;5062502;28;20163;-63
2022/11/06 05:30:33;;;;;;;4.23;2.93;;;;;;;19.20;63.99;100552.47;5035999;28;20444;-65
2022/11/06 05:32:58;;;;;;;4.53;2.80;;;;;;;19.26;63.87;100548.16;5034954;28;20639;-64
2022/11/06 05:35:23;;;;;;;4.07;3.00;;;;;;;19.21;64.14;100542.69;5052018;28;20406;-63
2022/11/06 05:37:49;;;;;;;3.57;2.93;;;;;;;19.26;63.93;100540.38;5035464;28;20213;-64
2022/11/06 05:40:15;;;;;;;4.03;3.17;;;;;;;19.23;63.91;100534.56;5051954;28;20629;-64
2022/11/06 05:42:40;;;;;;;4.23;2.93;;;;;;;19.23;64.07;100538.28;5035088;28;20562;-64
2022/11/06 05:45:06;;;;;;;3.77;3.00;;;;;;;19.26;63.89;100536.69;5069955;28;20638;-64
2022/11/06 05:47:31;;;;;;;4.80;3.10;;;;;;;19.23;63.84;100535.41;5035930;28;20183;-64
2022/11/06 05:49:57;;;;;;;4.10;3.30;;;;;;;19.28;63.88;100519.94;5084448;28;20748;-64
2022/11/06 05:52:22;;;;;;;3.33;2.43;;;;;;;19.27;63.85;100524.03;5072899;28;20175;-64
2022/11/06 05:54:48;;;;;;;4.17;2.97;;;;;;;19.26;63.70;100520.31;5090554;28;20221;-64
2022/11/06 05:57:13;;;;;;;4.43;2.67;;;;;;;19.22;63.96;100527.22;5072284;28;20171;-64
2022/11/06 05:59:39;;;;;;;3.73;2.63;;;;;;;19.21;63.86;100519.81;5071687;28;20170;-64
2022/11/06 06:02:04;;;;;;;3.33;2.57;;;;;;;19.25;63.74;100520.69;5071382;28;20195;-64
2022/11/06 06:04:29;;;;;;;3.83;2.70;;;;;;;19.27;63.55;100521.97;5071448;28;20201;-64
2022/11/06 06:06:55;;;;;;;3.30;2.63;;;;;;;19.25;63.94;100509.25;5071910;28;20158;-64
2022/11/06 06:09:20;;;;;;;5.70;3.07;;;;;;;19.22;63.97;100505.13;5089618;28;20539;-63
2022/11/06 06:11:50;;;;;;;3.43;2.60;;;;;;;19.23;63.93;100488.78;5089961;28;20598;-63
2022/11/06 06:14:15;;;;;;;4.37;2.67;;;;;;;19.25;63.78;100477.75;5072481;28;20193;-64
2022/11/06 06:16:40;;;;;;;4.00;2.57;;;;;;;19.23;63.92;100478.16;5087239;28;20421;-63
2022/11/06 06:19:06;;;;;;;4.00;2.50;;;;;;;19.27;63.68;100484.75;5035159;28;20183;-64
2022/11/06 06:21:31;;;;;;;3.70;2.70;;;;;;;19.28;63.87;100480.72;5070078;28;20206;-64
2022/11/06 06:23:57;;;;;;;3.23;2.43;;;;;;;19.25;63.73;100474.91;5070179;28;20235;-64
2022/11/06 06:26:22;;;;;;;2.80;2.20;;;;;;;19.27;63.64;100469.63;5053379;28;20638;-64
2022/11/06 06:28:48;;;;;;;3.50;2.77;;;;;;;19.28;63.47;100462.69;5053167;28;20541;-64
2022/11/06 06:31:13;;;;;;;4.10;2.90;;;;;;;19.25;63.77;100446.28;5071966;28;20535;-63
2022/11/06 06:33:39;;;;;;;3.73;2.70;;;;;;;19.26;63.76;100445.91;5038875;28;20181;-64
2022/11/06 06:36:05;;;;;;;4.23;2.90;;;;;;;19.25;63.99;100429.94;5073566;28;20186;-63
2022/11/06 06:38:31;;;;;;;4.67;2.80;;;;;;;19.27;63.62;100427.50;5064661;28;20182;-63
2022/11/06 06:41:02;;;;;;;3.07;2.30;;;;;;;19.23;63.88;100426.66;5057233;28;20571;-64
2022/11/06 06:43:28;;;;;;;4.70;2.80;;;;;;;19.27;63.79;100418.94;5074136;28;20171;-64
2022/11/06 06:45:57;;;;;;;4.50;3.10;;;;;;;19.29;63.55;100409.97;5038822;28;20452;-63
2022/11/06 06:48:22;;;;;;;3.93;2.93;;;;;;;19.24;63.74;100396.81;5072956;28;20190;-64
2022/11/06 06:50:48;;;;;;;3.10;2.40;;;;;;;19.26;63.88;100390.72;5075055;28;20416;-64
2022/11/06 06:53:14;;;;;;;5.60;2.80;;;;;;;19.25;63.55;100389.03;5075333;28;20231;-63
2022/11/06 06:55:40;;;;;;;4.10;2.70;;;;;;;19.24;63.76;100382.50;5084401;28;20554;-63
2022/11/06 06:58:06;;;;;;;3.30;2.50;;;;;;;19.24;63.47;100373.06;5073193;28;20819;-64
2022/11/06 07:00:31;;;;;;;4.27;2.77;;;;;;;19.24;63.68;100376.78;5072736;28;20429;-64
2022/11/06 07:02:57;;;;;;;3.80;2.63;;;;;;;19.27;63.47;100370.25;5064302;28;20195;-64
2022/11/06 07:05:22;;;;;;;3.70;2.50;;;;;;;19.23;63.85;100360.81;5045335;28;20209;-64
2022/11/06 07:07:47;;;;;;;3.10;2.40;;;;;;;19.23;63.73;100363.69;5063154;28;20178;-64
2022/11/06 07:10:13;;;;;;;2.63;2.13;;;;;;;19.31;63.43;100367.47;5049121;28;20186;-64
2022/11/06 07:12:38;;;;;;;2.87;1.93;;;;;;;19.28;63.70;100360.50;5046541;28;20194;-63
2022/11/06 07:15:04;;;;;;;3.77;2.80;;;;;;;19.26;63.63;100360.03;5057600;28;20609;-64
2022/11/06 07:17:30;;;;;;;3.33;2.30;;;;;;;19.27;63.18;100360.88;5074750;28;20187;-64
2022/11/06 07:19:55;;;;;;;3.30;2.30;;;;;;;19.25;63.54;100348.97;5069187;28;20493;-64
2022/11/06 07:22:21;;;;;;;3.70;2.60;;;;;;;19.26;63.58;100344.91;5081595;28;20587;-63
2022/11/06 07:24:46;;;;;;;3.50;2.57;;;;;;;19.24;63.52;100348.16;5061349;28;20698;-65
2022/11/06 07:27:12;;;;;;;6.30;2.87;;;;;;;19.23;63.57;100352.22;5064948;28;20179;-64
2022/11/06 07:29:37;;;;;;;3.43;2.67;;;;;;;19.25;63.48;100363.28;5057132;28;20186;-64
2022/11/06 07:32:03;;;;;;;2.77;2.10;;;;;;;19.26;63.37;100357.16;5060669;28;20170;-65
2022/11/06 07:34:28;;;;;;;4.83;3.07;;;;;;;19.24;63.52;100370.22;5072233;28;20251;-64
2022/11/06 07:36:53;;;;;;;3.87;2.67;;;;;;;19.27;63.35;100380.91;5058436;28;20175;-64
2022/11/06 07:39:19;;;;;;;3.63;2.57;;;;;;;19.27;63.51;100390.31;5060726;28;21123;-64
2022/11/06 07:41:44;;;;;;;3.03;2.20;;;;;;;19.26;63.62;100402.97;5074559;28;20676;-65
2022/11/06 07:44:10;;;;;;;4.87;2.50;;;;;;;19.28;63.38;100408.31;5047243;28;20226;-64
2022/11/06 07:46:35;;;;;;;4.03;2.40;;;;;;;19.28;63.31;100414.03;5065330;28;20183;-64
2022/11/06 07:49:01;;;;;;;2.80;2.00;;;;;;;19.26;63.31;100425.88;5077454;28;20241;-65
2022/11/06 07:51:26;;;;;;;3.03;2.43;;;;;;;19.27;63.34;100438.97;5063876;28;20605;-63
2022/11/06 07:53:52;;;;;;;3.07;2.37;;;;;;;19.31;63.14;100451.31;5060914;28;20183;-64
2022/11/06 07:56:17;;;;;;;3.20;2.20;;;;;;;19.30;63.26;100463.13;5052617;28;20194;-64
2022/11/06 07:58:42;;;;;;;2.57;2.03;;;;;;;19.27;63.42;100484.75;5062032;28;20190;-63
2022/11/06 08:01:14;;;;;;;3.40;2.60;;;;;;;19.29;63.43;100502.41;5078843;28;20202;-63
2022/11/06 08:03:40;;;;;;;2.57;2.17;;;;;;;19.29;63.26;100513.00;5065332;28;20218;-63
2022/11/06 08:06:05;;;;;;;3.33;2.33;;;;;;;19.27;63.13;100519.13;5079559;28;20416;-64
2022/11/06 08:08:31;;;;;;;3.53;2.57;;;;;;;19.26;63.13;100514.59;5060119;28;20195;-63
2022/11/06 08:11:04;;;;;;;4.00;2.50;;;;;;;19.24;63.46;100508.44;5057050;28;20630;-63
2022/11/06 08:13:29;;;;;;;3.47;2.30;;;;;;;19.27;63.15;100496.22;5058603;28;20182;-64
2022/11/06 08:15:55;;;;;;;5.07;2.80;;;;;;;19.29;63.17;100501.56;5079681;28;20421;-64
2022/11/06 08:18:20;;;;;;;3.97;2.77;;;;;;;19.32;62.99;100495.91;5058128;28;20182;-64
2022/11/06 08:20:45;;;;;;;3.03;2.43;;;;;;;19.30;63.14;100491.75;5064093;28;20205;-64
2022/11/06 08:23:11;;;;;;;4.17;2.40;;;;;;;19.28;63.26;100480.72;5042061;28;20830;-64
2022/11/06 08:25:37;;;;;;;2.60;2.40;;;;;;;19.28;63.29;100477.00;5042677;28;20530;-64
2022/11/06 08:28:02;;;;;;;3.30;2.30;;;;;;;19.28;63.00;100479.88;5077302;28;20265;-65
2022/11/06 08:30:28;;;;;;;2.63;2.07;;;;;;;19.28;63.26;100483.56;5042535;28;20701;-64
2022/11/06 08:32:54;;;;;;;3.70;2.20;;;;;;;19.28;63.18;100475.00;5030528;28;20182;-62
2022/11/06 08:35:20;;;;;;;2.97;1.97;;;;;;;19.28;63.78;100469.25;5065896;28;20190;-62
2022/11/06 08:37:45;;;;;;;7.07;1.93;;;;;;;19.28;63.21;100463.53;5056848;28;20447;-62
2022/11/06 08:40:11;;;;;;;2.73;2.07;;;;;;;19.29;62.87;100465.19;5073738;28;20233;-61
2022/11/06 08:42:36;;;;;;;2.70;1.97;;;;;;;19.28;63.05;100457.81;5079452;28;20289;-62
2022/11/06 08:45:03;;;;;;;2.43;2.10;;;;;;;19.31;63.14;100451.31;5073760;28;20772;-62
2022/11/06 08:47:28;;;;;;;3.67;2.20;;;;;;;19.30;63.01;100429.63;5076002;28;20580;-62
2022/11/06 08:49:54;;;;;;;2.70;2.00;;;;;;;19.27;63.21;100404.63;5075028;28;20472;-62
2022/11/06 08:52:20;;;;;;;4.20;2.60;;;;;;;19.27;63.13;100407.47;5077697;28;20587;-62
2022/11/06 08:54:45;;;;;;;2.07;1.63;;;;;;;19.26;63.28;100397.25;5078218;28;20440;-62
2022/11/06 08:57:11;;;;;;;2.80;1.90;;;;;;;19.30;63.05;100392.41;5075604;28;21056;-62
2022/11/06 08:59:36;;;;;;;3.00;2.10;;;;;;;19.30;63.31;100400.16;5073831;28;20746;-62
2022/11/06 09:02:02;;;;;;;3.33;2.20;;;;;;;19.32;62.98;100400.63;5073466;28;20661;-62
2022/11/06 09:04:27;;;;;;;2.93;2.23;;;;;;;19.29;63.16;100389.91;5072596;28;20206;-62
2022/11/06 09:06:53;;;;;;;2.90;1.90;;;;;;;19.30;63.18;100392.41;5075541;28;20210;-61
2022/11/06 09:09:18;;;;;;;2.70;2.00;;;;;;;19.29;63.14;100387.91;5071501;28;20191;-62
2022/11/06 09:11:44;;;;;;;2.40;1.60;;;;;;;19.31;63.01;100376.88;5075084;28;20239;-61
2022/11/06 09:14:09;;;;;;;3.37;2.10;;;;;;;19.27;63.20;100349.41;5056300;28;20186;-61
2022/11/06 09:16:34;;;;;;;2.30;1.80;;;;;;;19.27;63.46;100341.63;5072960;28;20174;-62
2022/11/06 09:19:00;;;;;;;2.73;2.10;;;;;;;19.27;63.27;100346.56;5077503;28;20190;-63
2022/11/06 09:21:25;;;;;;;3.13;2.00;;;;;;;19.32;62.91;100329.06;5072007;28;20202;-61
2022/11/06 09:23:51;;;;;;;2.53;2.07;;;;;;;19.34;63.02;100318.03;5072025;28;20190;-62
2022/11/06 09:26:16;;;;;;;2.97;2.20;;;;;;;19.31;63.21;100308.19;5077310;28;20760;-62
2022/11/06 09:28:42;;;;;;;2.77;1.90;;;;;;;19.29;63.36;100316.34;5071657;28;20503;-61
2022/11/06 09:31:07;;;;;;;2.67;2.03;;;;;;;19.29;63.25;100313.47;5058919;28;20182;-62
2022/11/06 09:33:33;;;;;;;3.43;2.40;;;;;;;19.33;63.33;100316.38;5073655;28;20189;-63
2022/11/06 09:35:58;;;;;;;3.10;2.27;;;;;;;19.30;63.15;100306.53;5071726;28;20263;-62
2022/11/06 09:38:24;;;;;;;4.10;2.27;;;;;;;19.32;63.04;100292.66;5073259;28;20601;-62
2022/11/06 09:40:55;;;;;;;2.70;1.97;;;;;;;19.29;63.05;100292.59;5065198;28;20183;-61
2022/11/06 09:43:42;;;;;;;2.67;1.90;;;;;;;19.31;63.07;100296.72;5071430;28;20234;-63
2022/11/06 09:46:38;;;;;;;3.00;2.10;;;;;;;19.33;63.58;100300.03;5073862;28;20421;-61
2022/11/06 09:49:24;;;;;;;3.80;2.40;;;;;;;19.30;63.08;100299.97;5051425;28;20471;-62
2022/11/06 09:52:03;;;;;;;2.43;1.83;;;;;;;19.35;63.63;100291.03;5060661;28;20429;-62
2022/11/06 09:54:35;;;;;;;3.13;2.23;;;;;;;19.28;63.26;100280.34;5072694;28;20512;-61
2022/11/06 09:57:09;;;;;;;2.70;1.80;;;;;;;19.29;63.16;100275.41;5077109;28;20747;-62
2022/11/06 09:59:35;;;;;;;3.37;2.27;;;;;;;19.26;63.45;100274.16;5076285;28;20471;-62
2022/11/06 10:02:01;;;;;;;2.40;1.87;;;;;;;19.26;63.53;100279.06;5077946;28;20463;-61
2022/11/06 10:04:40;;;;;;;2.63;1.90;;;;;;;19.27;63.42;100270.09;5078487;28;20474;-63
2022/11/06 10:07:22;;;;;;;2.60;1.80;;;;;;;19.29;63.24;100273.41;5076567;28;20190;-62
2022/11/06 10:09:47;;;;;;;2.83;1.93;;;;;;;19.30;63.32;100260.72;5062355;28;20482;-62
2022/11/06 10:12:34;;;;;;;2.40;1.90;;;;;;;19.29;63.33;100258.25;5078291;28;20425;-61
2022/11/06 10:15:18;;;;;;;2.53;1.77;;;;;;;19.33;63.08;100262.00;5074504;28;20183;-62
2022/11/06 10:18:16;;;;;;;3.03;1.83;;;;;;;19.32;63.18;100264.03;5074642;28;20915;-62
2022/11/06 10:20:52;;;;;;;3.17;1.87;;;;;;;19.28;63.49;100254.56;5026166;28;20447;-61
2022/11/06 10:23:43;;;;;;;2.70;2.07;;;;;;;19.29;63.36;100244.78;5075175;28;20459;-61
2022/11/06 10:26:15;;;;;;;3.20;2.37;;;;;;;19.30;63.06;100228.41;5076286;28;20408;-63
2022/11/06 10:29:00;;;;;;;3.47;2.10;;;;;;;19.30;63.44;100232.09;5075945;28;20768;-62
2022/11/06 10:31:44;;;;;;;3.13;2.30;;;;;;;19.31;63.43;100239.47;5069352;28;21451;-62
2022/11/06 10:34:12;;;;;;;2.63;1.70;;;;;;;19.32;63.36;100232.53;5074961;28;20744;-62
2022/11/06 10:37:11;;;;;;;2.73;2.07;;;;;;;19.34;63.07;100238.72;5060206;28;20420;-61
2022/11/06 10:39:37;;;;;;;2.90;2.00;;;;;;;19.34;63.32;100224.41;5073110;28;20556;-62
2022/11/06 10:42:10;;;;;;;2.40;1.67;;;;;;;19.38;63.26;100208.09;5077472;28;20525;-63
2022/11/06 10:44:48;;;;;;;2.70;1.83;;;;;;;19.39;62.92;100195.44;5075778;28;20260;-62
2022/11/06 10:47:21;;;;;;;2.83;1.97;;;;;;;19.36;63.09;100203.97;5071201;28;20424;-62
2022/11/06 10:49:53;;;;;;;5.13;1.80;;;;;;;19.36;63.09;100199.06;5073771;28;20850;-62
2022/11/06 10:52:37;;;;;;;3.00;1.73;;;;;;;19.37;63.23;100192.09;5077661;28;20517;-62
2022/11/06 10:55:38;;;;;;;2.90;2.20;;;;;;;19.40;63.10;100196.22;5059541;28;20444;-63
2022/11/06 10:58:05;;;;;;;2.27;1.70;;;;;;;19.39;63.01;100189.69;5075979;28;20575;-62
2022/11/06 11:00:30;;;;;;;3.70;2.00;;;;;;;19.36;63.47;100176.16;5075164;28;20425;-63
2022/11/06 11:02:57;;;;;;;2.70;1.97;;;;;;;19.39;62.91;100171.69;5078364;28;20464;-62
2022/11/06 11:05:23;;;;;;;2.30;1.70;;;;;;;19.35;63.35;100170.81;5058195;28;20198;-62
2022/11/06 11:07:49;;;;;;;4.70;1.80;;;;;;;19.36;63.10;100167.56;5046357;28;20602;-62
2022/11/06 11:10:34;;;;;;;2.67;1.93;;;;;;;19.38;63.30;100173.75;5077369;28;20424;-62
2022/11/06 11:13:01;;;;;;;2.50;1.90;;;;;;;19.38;62.95;100165.16;5056453;28;20221;-62
2022/11/06 11:15:29;;;;;;;2.50;1.90;;;;;;;19.36;63.09;100161.84;5067510;28;20433;-62
2022/11/06 11:18:10;;;;;;;3.10;2.20;;;;;;;19.35;63.22;100156.50;5054860;28;20445;-61
2022/11/06 11:20:36;;;;;;;2.90;1.80;;;;;;;19.37;63.15;100146.31;5075406;28;20508;-62
2022/11/06 11:23:22;;;;;;;2.90;1.93;;;;;;;19.37;63.22;100136.91;5079409;28;21047;-62
2022/11/06 11:25:49;;;;;;;2.33;1.50;;;;;;;19.37;63.26;100139.78;5073951;28;20423;-62
2022/11/06 11:28:29;;;;;;;2.80;1.73;;;;;;;19.40;63.38;100136.13;5074781;28;20417;-61
2022/11/06 11:31:05;;;;;;;3.30;2.03;;;;;;;19.38;63.18;100119.34;5079061;28;20428;-61
2022/11/06 11:33:30;;;;;;;2.20;1.53;;;;;;;19.38;63.04;100125.06;5061667;28;20417;-62
2022/11/06 11:35:56;;;;;;;3.00;2.17;;;;;;;19.41;63.01;100124.28;5075845;28;20433;-62
2022/11/06 11:38:21;;;;;;;2.87;1.93;;;;;;;19.42;63.11;100130.84;5074860;28;20183;-62
2022/11/06 11:40:47;;;;;;;2.87;1.90;;;;;;;19.36;63.10;100116.03;5056238;28;20209;-61
2022/11/06 11:43:19;;;;;;;3.23;1.93;;;;;;;19.39;63.14;100123.84;5056681;28;20206;-62
2022/11/06 11:46:02;;;;;;;2.87;1.83;;;;;;;19.43;63.03;100119.00;5058547;28;20178;-62
2022/11/06 11:48:28;;;;;;;2.67;1.77;;;;;;;19.41;63.31;100112.81;5076429;28;20477;-62